Ornskoldsvik, Sweden

6:15 AM CET on December 21, 2014 (GMT +0100)
Ornskoldsvik | Change Station
CLOSE
Current Station
Airport
Location: Ornskoldsvik,
Elevation: 328 ft
Nearby Weather Stations

Elev 328 ft 63.41 °N, 18.98 °E | Updated 25 minutes ago

Clear
Clear
23 °F
Feels Like 10 °F
N
15
Wind Variable Wind from NW

Today
High -- | Low -- °F
--% Chance of Precip.
Yesterday
High -- | Low -- °F
Precip. -- in
9:26 AM 1:57 PM
Waning Crescent, 1% visible
Pressure 29.30 in
Visibility 6.2 miles
Clouds
Windchill 10 °F
Dew Point 19 °F
Humidity 86%
Rainfall 0.00 in
Snow Depth Not available.
UV Not available.
Pollen Not available.
Air Quality Not available.
Flu Activity Not available.
METAR ESNO 210450Z AUTO 31013KT 9999 NCD M05/M07 Q0992

More Conditions Fewer Conditions

Pressure 29.30 in
Visibility 6.2 miles
Clouds
Windchill 10 °F
Dew Point 19 °F
Humidity 86%
Rainfall 0.00 in
Snow Depth Not available.
UV Not available.
Pollen Not available.
Air Quality Not available.
Flu Activity Not available.
METAR ESNO 210450Z AUTO 31013KT 9999 NCD M05/M07 Q0992

More Conditions Fewer Conditions

10-Day Weather Forecast

Almanac

Astronomy

Dec. 21, 2014 Rise Set
Actual Time
Civil Twilight
Nautical Twilight
Astronomical Twilight
Moon
Length of Visible Light
Length of Day
Tomorrow will be .
, % of the Moon is Illuminated

Today's Extremes

Country Highs Country Lows

Community

WunderPhotos

Upload Photos

1,779,358 photos uploaded!

WunderBlogs® & News

Nearby

Air Quality

  Air Quality AQ Index Pollutant
Not available.

Snow Depth

Station Depth Elevation

Earthquake Activity

City Distance Mag. Time & Date
Minimum magnitude displayed is 2.5.

Coastal Water Temperatures

Place Temperature

Nearby Weather Stations